createdAt,value
2018-06-20T00:01:19.867Z,6.30
2018-06-20T00:16:12.780Z,7.23
2018-06-20T00:18:42.305Z,8.30
2018-06-20T00:21:10.981Z,5.83
2018-06-20T00:23:39.756Z,7.47
2018-06-20T00:26:08.511Z,5.17
2018-06-20T00:28:36.791Z,7.43
2018-06-20T00:31:05.215Z,5.23
2018-06-20T00:33:33.912Z,6.53
2018-06-20T00:36:02.896Z,5.13
2018-06-20T00:38:31.561Z,5.47
2018-06-20T00:41:00.474Z,4.90
2018-06-20T00:43:29.040Z,6.60
2018-06-20T00:45:57.581Z,7.07
2018-06-20T00:48:26.414Z,5.60
2018-06-20T00:50:55.213Z,4.83
2018-06-20T00:53:23.952Z,7.33
2018-06-20T00:56:04.047Z,6.57
2018-06-20T00:58:32.814Z,5.20
2018-06-20T01:01:01.378Z,4.50
2018-06-20T01:03:29.974Z,5.23
2018-06-20T01:05:58.658Z,4.60
2018-06-20T01:08:27.792Z,5.87
2018-06-20T01:10:56.519Z,4.87
2018-06-20T01:13:24.849Z,5.13
2018-06-20T01:15:53.386Z,5.43
2018-06-20T01:18:21.661Z,5.07
2018-06-20T01:20:49.966Z,5.47
2018-06-20T01:23:18.589Z,6.33
2018-06-20T01:25:49.791Z,4.87
2018-06-20T01:28:19.992Z,4.40
2018-06-20T01:30:48.972Z,4.80
2018-06-20T01:33:17.515Z,5.70
2018-06-20T01:35:46.214Z,4.93
2018-06-20T01:38:14.819Z,5.23
2018-06-20T01:40:43.711Z,8.40
2018-06-20T01:43:13.934Z,4.27
2018-06-20T01:45:42.372Z,4.87
2018-06-20T01:48:11.106Z,5.57
2018-06-20T01:50:39.312Z,7.73
2018-06-20T01:53:07.911Z,4.40
2018-06-20T01:55:36.538Z,6.23
2018-06-20T01:58:04.895Z,5.00
2018-06-20T02:00:33.633Z,5.17
2018-06-20T02:03:02.168Z,5.90
2018-06-20T02:05:30.966Z,4.30
2018-06-20T02:07:59.591Z,4.13
2018-06-20T02:10:28.432Z,4.67
2018-06-20T02:12:57.148Z,3.77
2018-06-20T02:15:28.765Z,3.77
2018-06-20T02:17:58.941Z,4.43
2018-06-20T02:20:27.713Z,3.20
2018-06-20T02:22:56.247Z,3.30
2018-06-20T02:25:24.739Z,3.67
2018-06-20T02:27:53.312Z,3.57
2018-06-20T02:30:21.997Z,3.23
2018-06-20T02:32:50.957Z,3.20
2018-06-20T02:35:19.612Z,3.53
2018-06-20T02:37:47.851Z,4.00
2018-06-20T02:40:16.611Z,3.10
2018-06-20T02:42:45.279Z,3.27
2018-06-20T02:45:14.032Z,4.90
2018-06-20T02:47:43.384Z,3.23
2018-06-20T02:50:13.446Z,4.47
2018-06-20T02:52:42.014Z,3.40
2018-06-20T02:55:10.787Z,2.73
2018-06-20T02:57:39.420Z,3.63
2018-06-20T03:00:08.008Z,2.60
2018-06-20T03:02:36.285Z,3.03
2018-06-20T03:05:05.118Z,2.80
2018-06-20T03:07:33.704Z,3.80
2018-06-20T03:10:02.400Z,3.60
2018-06-20T03:12:31.106Z,4.33
2018-06-20T03:14:59.332Z,2.50
2018-06-20T03:17:27.964Z,3.90
2018-06-20T03:19:56.346Z,2.83
2018-06-20T03:22:24.528Z,2.90
2018-06-20T03:24:52.869Z,3.70
2018-06-20T03:27:21.561Z,4.30
2018-06-20T03:29:50.081Z,2.93
2018-06-20T03:32:18.761Z,6.50
2018-06-20T03:34:48.255Z,6.00
2018-06-20T03:37:16.511Z,2.87
2018-06-20T03:39:44.748Z,3.47
2018-06-20T03:42:13.373Z,3.50
2018-06-20T03:44:42.022Z,4.53
2018-06-20T03:47:10.585Z,3.50
2018-06-20T03:49:39.120Z,3.73
2018-06-20T03:52:07.821Z,4.03
2018-06-20T03:54:36.148Z,4.10
2018-06-20T03:57:04.994Z,5.40
2018-06-20T03:59:33.297Z,4.57
2018-06-20T04:02:02.004Z,2.60
2018-06-20T04:04:30.536Z,3.57
2018-06-20T04:06:59.120Z,2.53
2018-06-20T04:09:27.347Z,3.60
2018-06-20T04:11:56.194Z,2.50
2018-06-20T04:14:24.938Z,4.30
2018-06-20T04:16:53.532Z,2.63
2018-06-20T04:19:22.298Z,3.03
2018-06-20T04:21:51.014Z,2.73
2018-06-20T04:24:19.340Z,2.30
2018-06-20T04:26:47.941Z,3.80
2018-06-20T04:29:16.812Z,4.20
2018-06-20T04:31:45.377Z,2.80
2018-06-20T04:34:13.894Z,3.20
2018-06-20T04:36:42.411Z,2.93
2018-06-20T04:39:11.413Z,5.83
2018-06-20T04:41:39.681Z,4.57
2018-06-20T04:44:07.919Z,3.80
2018-06-20T04:46:36.705Z,3.90
2018-06-20T04:49:05.421Z,3.30
2018-06-20T04:51:34.439Z,2.80
2018-06-20T04:54:03.457Z,2.43
2018-06-20T04:56:32.138Z,5.10
2018-06-20T04:59:00.952Z,3.73
2018-06-20T05:01:29.576Z,4.73
2018-06-20T05:03:58.043Z,2.67
2018-06-20T05:06:26.307Z,4.47
2018-06-20T05:08:54.904Z,2.90
2018-06-20T05:11:23.422Z,4.07
2018-06-20T05:13:52.143Z,2.50
2018-06-20T05:16:20.860Z,2.60
2018-06-20T05:18:49.222Z,3.03
2018-06-20T05:21:17.914Z,6.53
2018-06-20T05:23:46.679Z,4.97
2018-06-20T05:26:15.257Z,13.87
2018-06-20T05:28:43.940Z,8.73
2018-06-20T05:31:12.620Z,6.57
2018-06-20T05:33:41.217Z,8.47
2018-06-20T05:36:09.907Z,3.97
2018-06-20T05:38:38.564Z,4.83
2018-06-20T05:41:07.213Z,4.27
2018-06-20T05:43:36.241Z,12.23
2018-06-20T05:46:04.841Z,10.80
2018-06-20T05:48:33.596Z,7.13
2018-06-20T05:51:03.333Z,8.53
2018-06-20T05:53:32.167Z,4.57
2018-06-20T05:56:01.387Z,9.60
2018-06-20T05:58:30.071Z,4.03
2018-06-20T06:00:58.827Z,5.90
2018-06-20T06:03:28.020Z,5.40
2018-06-20T06:06:11.760Z,3.90
2018-06-20T06:08:40.685Z,8.03
2018-06-20T06:11:09.546Z,6.80
2018-06-20T06:13:38.096Z,8.10
2018-06-20T06:16:06.844Z,7.43
2018-06-20T06:18:35.885Z,6.23
2018-06-20T06:21:04.740Z,6.40
2018-06-20T06:23:33.435Z,6.27
2018-06-20T06:26:03.468Z,6.53
2018-06-20T06:28:32.830Z,8.23
2018-06-20T06:31:01.515Z,5.60
2018-06-20T06:33:30.205Z,4.87
2018-06-20T06:35:58.828Z,4.50
2018-06-20T06:38:27.377Z,9.23
2018-06-20T06:40:56.046Z,10.73
2018-06-20T06:43:27.401Z,9.33
2018-06-20T06:45:57.157Z,7.70
2018-06-20T06:48:25.758Z,5.50
2018-06-20T06:50:54.344Z,13.77
2018-06-20T06:53:22.669Z,4.93
2018-06-20T06:55:51.256Z,10.77
2018-06-20T06:58:19.840Z,6.73
2018-06-20T07:00:48.397Z,11.67
2018-06-20T07:03:17.101Z,12.00
2018-06-20T07:05:45.920Z,5.20
2018-06-20T07:08:14.658Z,6.50
2018-06-20T07:10:43.192Z,7.77
2018-06-20T07:13:11.745Z,9.10
2018-06-20T07:15:40.333Z,7.50
2018-06-20T07:18:08.917Z,5.27
2018-06-20T07:20:37.587Z,3.87
2018-06-20T07:23:06.409Z,8.23
2018-06-20T07:25:37.363Z,8.03
2018-06-20T07:28:05.724Z,8.47
2018-06-20T07:30:34.360Z,4.57
2018-06-20T07:33:03.027Z,8.23
2018-06-20T07:35:31.654Z,9.63
2018-06-20T07:38:00.315Z,5.53
2018-06-20T07:40:28.952Z,5.43
2018-06-20T07:42:57.600Z,6.47
2018-06-20T07:45:26.358Z,6.93
2018-06-20T07:47:55.030Z,10.63
2018-06-20T07:50:23.595Z,6.37
2018-06-20T07:52:51.910Z,6.50
2018-06-20T07:55:20.604Z,6.73
2018-06-20T07:57:49.217Z,6.63
2018-06-20T08:00:23.465Z,3.10
2018-06-20T08:03:02.715Z,5.10
2018-06-20T08:05:36.578Z,4.13
2018-06-20T08:08:10.536Z,8.80
2018-06-20T08:10:44.509Z,6.17
2018-06-20T08:13:18.567Z,6.03
2018-06-20T08:15:52.712Z,6.37
2018-06-20T08:18:26.690Z,8.33
2018-06-20T08:20:55.531Z,6.60
2018-06-20T08:23:24.358Z,6.83
2018-06-20T08:25:53.206Z,8.43
2018-06-20T08:28:21.737Z,6.23
2018-06-20T08:30:50.413Z,7.33
2018-06-20T08:33:19.421Z,8.27
2018-06-20T08:35:48.356Z,5.27
2018-06-20T08:38:17.250Z,7.80
2018-06-20T08:40:45.902Z,6.67
2018-06-20T08:43:14.469Z,7.07
2018-06-20T08:45:43.103Z,6.73
2018-06-20T08:48:11.782Z,5.70
2018-06-20T08:50:40.539Z,12.63
2018-06-20T08:53:09.191Z,7.03
2018-06-20T08:55:37.966Z,7.43
2018-06-20T08:58:06.768Z,9.47
2018-06-20T09:00:40.934Z,10.13
2018-06-20T09:03:09.817Z,6.97
2018-06-20T09:05:43.933Z,9.67
2018-06-20T09:08:19.444Z,10.77
2018-06-20T09:10:53.292Z,10.60
2018-06-20T09:13:27.233Z,6.70
2018-06-20T09:16:00.985Z,8.23
2018-06-20T09:18:35.563Z,7.40
2018-06-20T09:21:04.126Z,6.13
2018-06-20T09:23:32.420Z,6.90
2018-06-20T09:26:01.122Z,7.27
2018-06-20T09:28:30.661Z,6.03
2018-06-20T09:30:59.640Z,7.03
2018-06-20T09:33:28.160Z,8.80
2018-06-20T09:35:56.760Z,6.20
2018-06-20T09:38:25.053Z,7.47
2018-06-20T09:40:53.667Z,6.80
2018-06-20T09:43:22.374Z,6.73
2018-06-20T09:45:50.930Z,8.13
2018-06-20T09:48:19.621Z,7.50
2018-06-20T09:50:53.495Z,11.80
2018-06-20T09:53:22.177Z,8.10
2018-06-20T09:55:55.028Z,7.80
2018-06-20T09:58:23.603Z,8.20
2018-06-20T10:00:59.787Z,8.87
2018-06-20T10:04:33.819Z,8.93
2018-06-20T10:07:08.533Z,8.50
2018-06-20T10:09:42.404Z,9.17
2018-06-20T10:12:12.113Z,9.07
2018-06-20T10:14:40.467Z,9.80
2018-06-20T10:17:09.690Z,7.20
2018-06-20T10:19:38.293Z,7.93
2018-06-20T10:22:07.634Z,11.03
2018-06-20T10:24:36.306Z,6.83
2018-06-20T10:27:05.188Z,7.90
2018-06-20T10:29:33.513Z,6.93
2018-06-20T10:32:02.349Z,6.73
2018-06-20T10:34:30.646Z,8.97
2018-06-20T10:36:59.357Z,7.90
2018-06-20T10:39:27.902Z,7.53
2018-06-20T10:41:56.507Z,8.73
2018-06-20T10:44:25.234Z,7.77
2018-06-20T10:46:59.318Z,7.87
2018-06-20T10:49:31.450Z,6.67
2018-06-20T10:52:03.106Z,8.50
2018-06-20T10:54:32.006Z,9.03
2018-06-20T10:57:06.053Z,7.53
2018-06-20T10:59:40.043Z,8.00
2018-06-20T11:02:14.201Z,7.93
2018-06-20T11:04:48.236Z,9.37
2018-06-20T11:07:22.109Z,8.10
2018-06-20T11:09:56.187Z,7.80
2018-06-20T11:12:30.096Z,8.20
2018-06-20T11:14:58.889Z,6.60
2018-06-20T11:17:27.581Z,8.00
2018-06-20T11:19:59.095Z,7.77
2018-06-20T11:22:27.802Z,7.63
2018-06-20T11:24:56.547Z,8.20
2018-06-20T11:27:25.468Z,6.90
2018-06-20T11:29:54.115Z,6.80
2018-06-20T11:32:22.801Z,7.70
2018-06-20T11:34:51.102Z,6.80
2018-06-20T11:37:19.894Z,8.53
2018-06-20T11:39:49.261Z,7.97
2018-06-20T11:42:18.027Z,6.33
2018-06-20T11:44:46.753Z,6.97
2018-06-20T11:47:20.697Z,7.23
2018-06-20T11:49:49.440Z,6.50
2018-06-20T11:52:22.987Z,10.80
2018-06-20T11:54:55.216Z,9.97
2018-06-20T11:57:23.630Z,7.03
2018-06-20T12:00:56.284Z,7.47
2018-06-20T12:03:30.325Z,11.57
2018-06-20T12:06:04.453Z,10.00
2018-06-20T12:08:39.083Z,7.07
2018-06-20T12:11:13.146Z,7.10
2018-06-20T12:13:46.939Z,8.77
2018-06-20T12:16:21.852Z,9.40
2018-06-20T12:18:55.695Z,7.63
2018-06-20T12:21:29.721Z,9.07
2018-06-20T12:24:03.856Z,10.37
2018-06-20T12:26:37.932Z,7.80
2018-06-20T12:29:11.818Z,6.30
2018-06-20T12:31:45.651Z,6.23
2018-06-20T12:34:19.676Z,7.33
2018-06-20T12:36:53.824Z,6.17
2018-06-20T12:39:21.777Z,9.63
2018-06-20T12:41:55.683Z,5.47
2018-06-20T12:44:30.330Z,8.20
2018-06-20T12:47:02.533Z,7.50
2018-06-20T12:49:34.260Z,7.17
2018-06-20T12:52:02.973Z,6.37
2018-06-20T12:54:31.736Z,5.80
2018-06-20T12:57:00.010Z,5.77
2018-06-20T12:59:28.730Z,6.70
2018-06-20T13:01:57.651Z,5.80
2018-06-20T13:04:26.555Z,9.00
2018-06-20T13:06:56.446Z,8.63
2018-06-20T13:09:25.275Z,6.00
2018-06-20T13:11:54.143Z,7.97
2018-06-20T13:14:22.956Z,7.60
2018-06-20T13:16:51.641Z,6.87
2018-06-20T13:19:19.911Z,6.03
2018-06-20T13:21:48.661Z,6.33
2018-06-20T13:24:17.709Z,6.30
2018-06-20T13:26:46.302Z,6.63
2018-06-20T13:29:14.939Z,7.03
2018-06-20T13:31:48.952Z,6.70
2018-06-20T13:34:22.865Z,5.77
2018-06-20T13:36:56.923Z,5.90
2018-06-20T13:39:30.941Z,5.80
2018-06-20T13:43:02.911Z,6.17
2018-06-20T13:45:36.839Z,8.13
2018-06-20T13:48:10.844Z,5.93
2018-06-20T13:50:39.511Z,5.87
2018-06-20T13:53:08.153Z,6.23
2018-06-20T13:55:36.933Z,6.07
2018-06-20T13:58:05.914Z,5.97
2018-06-20T14:00:34.492Z,6.23
2018-06-20T14:03:03.090Z,8.87
2018-06-20T14:05:32.859Z,8.73
2018-06-20T14:08:01.461Z,6.97
2018-06-20T14:10:30.061Z,7.43
2018-06-20T14:12:58.692Z,10.40
2018-06-20T14:15:27.492Z,6.83
2018-06-20T14:17:56.034Z,7.17
2018-06-20T14:20:30.078Z,6.73
2018-06-20T14:22:58.751Z,7.30
2018-06-20T14:25:27.496Z,7.60
2018-06-20T14:27:56.117Z,7.47
2018-06-20T14:30:30.160Z,6.80
2018-06-20T14:33:04.108Z,6.07
2018-06-20T14:35:38.082Z,5.60
2018-06-20T14:38:12.059Z,7.07
2018-06-20T14:40:46.151Z,6.17
2018-06-20T14:43:19.769Z,7.10
2018-06-20T14:45:53.699Z,5.47
2018-06-20T14:48:22.578Z,6.77
2018-06-20T14:50:51.271Z,5.17
2018-06-20T14:53:19.912Z,5.87
2018-06-20T14:55:48.244Z,5.97
2018-06-20T14:58:16.898Z,6.13
2018-06-20T15:00:45.283Z,5.87
2018-06-20T15:03:13.596Z,5.93
2018-06-20T15:05:42.184Z,6.70
2018-06-20T15:08:11.418Z,6.40
2018-06-20T15:10:39.975Z,4.83
2018-06-20T15:13:08.714Z,5.70
2018-06-20T15:15:37.405Z,5.27
2018-06-20T15:18:06.029Z,5.13
2018-06-20T15:20:34.664Z,5.60
2018-06-20T15:23:03.317Z,8.30
2018-06-20T15:25:33.147Z,5.73
2018-06-20T15:28:06.948Z,6.63
2018-06-20T15:30:40.779Z,5.57
2018-06-20T15:33:14.726Z,4.70
2018-06-20T15:35:48.793Z,6.13
2018-06-20T15:38:20.308Z,4.63
2018-06-20T15:40:49.192Z,5.13
2018-06-20T15:43:17.930Z,5.40
2018-06-20T15:45:47.140Z,5.23
2018-06-20T15:48:15.945Z,6.17
2018-06-20T15:50:45.660Z,5.53
2018-06-20T15:53:14.407Z,6.10
2018-06-20T15:55:43.331Z,4.93
2018-06-20T15:58:11.983Z,6.03
2018-06-20T16:00:40.666Z,5.63
2018-06-20T16:03:09.323Z,4.80
2018-06-20T16:05:37.597Z,4.83
2018-06-20T16:08:06.755Z,4.70
2018-06-20T16:10:36.094Z,7.93
2018-06-20T16:13:04.468Z,5.10
2018-06-20T16:15:33.445Z,4.13
2018-06-20T16:18:02.112Z,4.70
2018-06-20T16:20:36.924Z,4.70
2018-06-20T16:23:11.823Z,5.87
2018-06-20T16:25:47.833Z,7.03
2018-06-20T16:28:21.716Z,4.40
2018-06-20T16:33:24.837Z,6.60
2018-06-20T16:35:54.063Z,4.60
2018-06-20T16:38:22.775Z,4.70
2018-06-20T16:40:52.525Z,9.00
2018-06-20T16:43:24.240Z,5.37
2018-06-20T16:45:53.914Z,6.53
2018-06-20T16:48:22.808Z,5.00
2018-06-20T16:50:52.989Z,5.90
2018-06-20T16:53:23.446Z,5.17
2018-06-20T16:55:52.147Z,5.87
2018-06-20T16:58:20.955Z,6.70
2018-06-20T17:00:50.445Z,5.00
2018-06-20T17:03:18.806Z,8.10
2018-06-20T17:05:47.396Z,4.53
2018-06-20T17:08:15.969Z,6.63
2018-06-20T17:10:44.839Z,5.33
2018-06-20T17:13:18.873Z,7.33
2018-06-20T17:15:54.435Z,7.23
2018-06-20T17:18:28.293Z,7.50
2018-06-20T17:21:02.293Z,6.00
2018-06-20T17:23:36.429Z,5.63
2018-06-20T17:26:05.035Z,5.20
2018-06-20T17:28:33.693Z,6.03
2018-06-20T17:31:02.944Z,5.73
2018-06-20T17:33:31.650Z,5.63
2018-06-20T17:36:00.260Z,5.87
2018-06-20T17:38:28.896Z,6.10
2018-06-20T17:40:58.326Z,5.87
2018-06-20T17:43:26.898Z,5.53
2018-06-20T17:45:55.506Z,6.57
2018-06-20T17:48:30.308Z,6.50
2018-06-20T17:50:59.610Z,6.97
2018-06-20T17:53:28.846Z,7.20
2018-06-20T17:55:57.651Z,7.00
2018-06-20T17:58:26.237Z,12.80
2018-06-20T18:01:01.006Z,6.53
2018-06-20T18:03:30.368Z,8.60
2018-06-20T18:06:05.999Z,6.00
2018-06-20T18:08:40.278Z,6.50
2018-06-20T18:11:11.486Z,8.27
2018-06-20T18:13:47.605Z,6.67
2018-06-20T18:16:22.272Z,5.93
2018-06-20T18:18:51.212Z,7.40
2018-06-20T18:21:21.502Z,7.97
2018-06-20T18:23:49.938Z,7.87
2018-06-20T18:26:20.015Z,8.00
2018-06-20T18:28:50.237Z,5.70
2018-06-20T18:31:20.007Z,7.57
2018-06-20T18:33:48.417Z,6.10
2018-06-20T18:36:17.698Z,8.17
2018-06-20T18:38:49.191Z,7.70
2018-06-20T18:41:19.753Z,6.67
2018-06-20T18:43:48.406Z,6.70
2018-06-20T18:46:19.869Z,8.93
2018-06-20T18:48:49.971Z,8.23
2018-06-20T18:51:33.075Z,8.40
2018-06-20T18:54:04.218Z,6.53
2018-06-20T18:56:34.296Z,6.53
2018-06-20T18:59:09.632Z,8.83
2018-06-20T19:01:43.543Z,6.20
2018-06-20T19:05:19.589Z,6.97
2018-06-20T19:07:54.188Z,6.53
2018-06-20T19:10:22.927Z,7.03
2018-06-20T19:12:51.970Z,9.30
2018-06-20T19:15:20.693Z,7.33
2018-06-20T19:17:49.317Z,8.33
2018-06-20T19:20:18.027Z,9.60
2018-06-20T19:22:46.790Z,7.03
2018-06-20T19:25:15.520Z,7.40
2018-06-20T19:27:44.252Z,8.77
2018-06-20T19:30:12.932Z,7.30
2018-06-20T19:32:41.783Z,8.43
2018-06-20T19:35:10.567Z,8.30
2018-06-20T19:37:39.352Z,10.13
2018-06-20T19:40:08.231Z,10.47
2018-06-20T19:42:38.536Z,11.10
2018-06-20T19:45:07.459Z,11.90
2018-06-20T19:47:35.743Z,8.20
2018-06-20T19:50:04.735Z,8.63
2018-06-20T19:52:33.499Z,9.77
2018-06-20T19:55:02.376Z,8.67
2018-06-20T19:57:31.467Z,9.73
2018-06-20T20:00:00.056Z,6.83
2018-06-20T20:02:28.641Z,10.93
2018-06-20T20:04:58.082Z,9.17
2018-06-20T20:07:27.091Z,8.43
2018-06-20T20:09:55.551Z,10.10
2018-06-20T20:12:24.143Z,7.37
2018-06-20T20:14:52.475Z,9.40
2018-06-20T20:17:21.295Z,8.20
2018-06-20T20:19:50.996Z,8.63
2018-06-20T20:22:19.688Z,8.00
2018-06-20T20:24:49.513Z,8.20
2018-06-20T20:27:18.394Z,9.50
2018-06-20T20:29:47.103Z,10.77
2018-06-20T20:32:16.381Z,9.63
2018-06-20T20:34:46.470Z,11.20
2018-06-20T20:37:18.647Z,13.90
2018-06-20T20:39:49.936Z,13.07
2018-06-20T20:42:19.988Z,11.97
2018-06-20T20:44:51.377Z,10.67
2018-06-20T20:47:52.059Z,12.47
2018-06-20T20:53:37.940Z,16.77
2018-06-20T20:59:56.176Z,15.50
2018-06-20T21:02:41.443Z,12.57
2018-06-20T21:05:29.671Z,14.23
2018-06-20T21:08:08.200Z,13.10
2018-06-20T21:10:47.910Z,11.23
2018-06-20T21:13:27.731Z,12.17
2018-06-20T21:15:56.416Z,11.40
2018-06-20T21:18:25.737Z,8.87
2018-06-20T21:21:03.886Z,12.43
2018-06-20T21:23:43.758Z,11.57
2018-06-20T21:26:35.678Z,9.83
2018-06-20T21:32:18.283Z,8.00
2018-06-20T21:35:29.276Z,11.23
2018-06-20T21:37:57.903Z,8.30
2018-06-20T21:40:27.861Z,9.27
2018-06-20T21:42:56.479Z,7.83
2018-06-20T21:45:25.780Z,9.00
2018-06-20T21:47:54.884Z,8.87
2018-06-20T21:50:23.364Z,8.53
2018-06-20T21:52:52.110Z,10.17
2018-06-20T21:55:20.932Z,9.77
2018-06-20T21:57:49.325Z,9.90
2018-06-20T22:00:18.332Z,8.90
2018-06-20T22:02:46.933Z,9.07
2018-06-20T22:05:15.811Z,10.47
2018-06-20T22:07:45.279Z,9.70
2018-06-20T22:10:14.629Z,12.07
2018-06-20T22:12:43.301Z,9.20
2018-06-20T22:15:12.047Z,10.00
2018-06-20T22:17:40.398Z,9.10
2018-06-20T22:20:09.732Z,9.00
2018-06-20T22:22:38.794Z,11.53
2018-06-20T22:25:08.139Z,9.60
2018-06-20T22:27:37.004Z,9.30
2018-06-20T22:30:05.658Z,9.67
2018-06-20T22:32:34.444Z,9.47
2018-06-20T22:35:03.358Z,9.87
2018-06-20T22:37:32.302Z,9.30
2018-06-20T22:40:01.117Z,10.17
2018-06-20T22:42:29.911Z,9.00
2018-06-20T22:44:59.108Z,8.80
2018-06-20T22:47:28.300Z,10.97
2018-06-20T22:49:57.085Z,9.03
2018-06-20T22:52:25.881Z,8.97
2018-06-20T22:54:54.767Z,8.90
2018-06-20T22:57:23.408Z,9.97
2018-06-20T22:59:52.342Z,9.50
2018-06-20T23:02:21.034Z,10.37
2018-06-20T23:04:49.788Z,11.00
2018-06-20T23:07:18.537Z,10.27
2018-06-20T23:09:47.200Z,9.30
2018-06-20T23:12:16.131Z,11.30
2018-06-20T23:14:44.867Z,10.77
2018-06-20T23:17:13.580Z,10.57
2018-06-20T23:19:42.194Z,10.03
2018-06-20T23:22:11.199Z,10.53
2018-06-20T23:24:39.910Z,11.77
2018-06-20T23:27:08.636Z,14.23
2018-06-20T23:29:37.386Z,10.87
2018-06-20T23:32:06.242Z,11.47
2018-06-20T23:34:34.974Z,11.60
2018-06-20T23:37:03.722Z,11.87
2018-06-20T23:39:32.536Z,10.97
2018-06-20T23:42:01.324Z,10.67
2018-06-20T23:44:30.039Z,10.10
2018-06-20T23:46:58.433Z,12.47
2018-06-20T23:49:27.277Z,12.53
2018-06-20T23:51:56.069Z,12.57
2018-06-20T23:54:25.020Z,12.50
2018-06-20T23:56:53.820Z,12.17
2018-06-20T23:59:22.625Z,12.53
